createdAt,value
2022-12-08T00:57:10.670Z,101070.47
2022-12-08T00:59:37.073Z,101067.06
2022-12-08T01:02:03.658Z,101061.94
2022-12-08T01:04:30.377Z,101063.69
2022-12-08T01:06:56.911Z,101064.53
2022-12-08T01:09:23.524Z,101062.03
2022-12-08T01:11:50.136Z,101056.00
2022-12-08T01:14:16.795Z,101051.63
2022-12-08T01:16:43.823Z,101047.31
2022-12-08T01:19:15.763Z,101054.19
2022-12-08T01:21:44.678Z,101054.09
2022-12-08T01:24:16.714Z,101064.38
2022-12-08T01:26:43.619Z,101062.56
2022-12-08T01:29:11.112Z,101057.38
2022-12-08T01:31:38.525Z,101055.66
2022-12-08T01:34:06.308Z,101042.81
2022-12-08T01:36:36.993Z,101050.63
2022-12-08T01:39:07.742Z,101049.78
2022-12-08T01:41:37.443Z,101061.78
2022-12-08T01:44:25.117Z,101059.09
2022-12-08T01:46:53.780Z,101064.22
2022-12-08T01:49:26.695Z,101065.06
2022-12-08T01:52:17.243Z,101064.19
2022-12-08T01:54:51.071Z,101060.81
2022-12-08T01:57:27.720Z,101047.91
2022-12-08T02:00:02.883Z,101044.56
2022-12-08T02:02:34.654Z,101048.94
2022-12-08T02:05:02.288Z,101040.38
2022-12-08T02:07:29.369Z,101040.31
2022-12-08T02:09:56.235Z,101040.38
2022-12-08T02:12:22.947Z,101038.63
2022-12-08T02:14:49.516Z,101033.44
2022-12-08T02:17:53.565Z,101029.13
2022-12-08T02:20:29.360Z,101021.44
2022-12-08T02:23:15.272Z,101018.03
2022-12-08T02:26:03.641Z,101014.59
2022-12-08T02:28:33.088Z,101012.84
2022-12-08T02:31:31.976Z,101009.44
2022-12-08T02:34:23.864Z,101005.19
2022-12-08T02:37:03.419Z,100997.44
2022-12-08T02:39:42.310Z,101002.59
2022-12-08T02:42:08.805Z,101015.44
2022-12-08T02:44:41.886Z,100997.28
2022-12-08T02:47:20.372Z,101000.78
2022-12-08T02:49:46.918Z,100994.75
2022-12-08T02:52:13.346Z,100993.03
2022-12-08T02:54:49.289Z,100988.69
2022-12-08T02:57:37.366Z,100987.78
2022-12-08T03:00:20.282Z,100975.72
2022-12-08T03:03:16.949Z,100967.94
2022-12-08T03:05:52.434Z,100973.94
2022-12-08T03:08:18.989Z,100969.69
2022-12-08T03:11:01.601Z,100967.94
2022-12-08T03:13:50.155Z,100961.00
2022-12-08T03:16:22.882Z,100967.78
2022-12-08T03:18:56.403Z,100972.88
2022-12-08T03:21:23.100Z,100963.31
2022-12-08T03:23:55.371Z,100966.72
2022-12-08T03:26:41.062Z,100966.66
2022-12-08T03:29:08.428Z,100964.03
2022-12-08T03:31:41.630Z,100961.44
2022-12-08T03:34:10.693Z,100959.72
2022-12-08T03:36:37.433Z,100957.97
2022-12-08T03:39:04.340Z,100953.69
2022-12-08T03:41:30.852Z,100955.38
2022-12-08T03:43:59.482Z,100947.63
2022-12-08T03:48:54.926Z,100944.22
2022-12-08T03:51:21.738Z,100933.09
2022-12-08T03:53:48.661Z,100927.13
2022-12-08T03:56:19.402Z,100928.03
2022-12-08T03:58:45.940Z,100922.91
2022-12-08T04:01:12.761Z,100920.38
2022-12-08T04:03:39.239Z,100924.84
2022-12-08T04:06:06.266Z,100925.69
2022-12-08T04:08:32.865Z,100928.28
2022-12-08T04:10:59.265Z,100926.59
2022-12-08T04:13:25.870Z,100922.34
2022-12-08T04:15:52.464Z,100920.63
2022-12-08T04:18:19.259Z,100920.63
2022-12-08T04:20:46.273Z,100920.59
2022-12-08T04:23:13.514Z,100925.75
2022-12-08T04:25:40.130Z,100919.75
2022-12-08T04:28:06.693Z,100911.09
2022-12-08T04:30:34.077Z,100905.13
2022-12-08T04:33:00.489Z,100914.66
2022-12-08T04:35:27.514Z,100905.19
2022-12-08T04:37:53.926Z,100907.69
2022-12-08T04:40:20.499Z,100904.19
2022-12-08T04:42:47.576Z,100900.75
2022-12-08T04:45:14.327Z,100900.75
2022-12-08T04:47:40.960Z,100900.75
2022-12-08T04:50:08.338Z,100899.91
2022-12-08T04:52:35.807Z,100905.09
2022-12-08T04:55:03.239Z,100909.34
2022-12-08T04:57:29.631Z,100905.84
2022-12-08T04:59:56.778Z,100903.19
2022-12-08T05:02:23.266Z,100898.94
2022-12-08T05:04:49.817Z,100897.19
2022-12-08T05:07:17.239Z,100887.69
2022-12-08T05:09:44.851Z,100898.09
2022-12-08T05:12:11.423Z,100895.44
2022-12-08T05:14:39.798Z,100891.09
2022-12-08T05:17:09.692Z,100890.25
2022-12-08T08:07:43.505Z,100877.75
2022-12-08T08:10:12.744Z,100875.22
2022-12-08T08:12:39.636Z,100871.78
2022-12-08T08:15:07.938Z,100876.91
2022-12-08T08:17:36.496Z,100887.22
2022-12-08T08:20:08.086Z,100875.91
2022-12-08T08:22:35.833Z,100884.44
2022-12-08T08:25:02.411Z,100882.78
2022-12-08T08:27:28.919Z,100890.53
2022-12-08T08:29:55.312Z,100888.69
2022-12-08T08:32:21.780Z,100887.00
2022-12-08T08:34:48.245Z,100889.56
2022-12-08T08:37:14.983Z,100886.91
2022-12-08T08:39:43.003Z,100896.38
2022-12-08T08:42:09.644Z,100892.84
2022-12-08T08:44:37.415Z,100904.00
2022-12-08T08:47:03.878Z,100892.09
2022-12-08T08:49:30.321Z,100893.69
2022-12-08T08:51:58.952Z,100897.19
2022-12-08T08:54:33.790Z,100902.34
2022-12-08T08:57:01.131Z,100899.78
2022-12-08T08:59:28.706Z,100900.59
2022-12-08T09:01:56.301Z,100898.84
2022-12-08T09:04:23.611Z,100897.13
2022-12-08T09:06:50.195Z,100881.63
2022-12-08T09:09:17.145Z,100883.44
2022-12-08T09:11:44.017Z,100886.94
2022-12-08T09:14:15.506Z,100892.03
2022-12-08T09:16:42.777Z,100881.56
2022-12-08T09:19:09.599Z,100882.47
2022-12-08T09:21:36.102Z,100882.47
2022-12-08T09:24:02.796Z,100883.31
2022-12-08T09:26:29.251Z,100883.31
2022-12-08T09:28:56.878Z,100881.41
2022-12-08T09:31:24.305Z,100888.91
2022-12-08T09:33:54.234Z,100879.47
2022-12-08T09:36:21.576Z,100885.34
2022-12-08T09:38:53.486Z,100885.34
2022-12-08T09:41:43.329Z,100882.81
2022-12-08T09:44:29.685Z,100883.66
2022-12-08T09:46:58.676Z,100882.84
2022-12-08T09:49:41.697Z,100879.31
2022-12-08T09:52:22.466Z,100888.66
2022-12-08T09:54:49.368Z,100888.56
2022-12-08T09:57:19.334Z,100892.75
2022-12-08T09:59:52.518Z,100897.81
2022-12-08T10:02:29.599Z,100897.75
2022-12-08T10:04:58.074Z,100895.06
2022-12-08T10:07:33.689Z,100890.59
2022-12-08T10:10:22.722Z,100880.09
2022-12-08T10:12:52.093Z,100884.41
2022-12-08T10:15:58.211Z,100885.28
2022-12-08T10:18:32.671Z,100886.94
2022-12-08T10:21:13.438Z,100887.75
2022-12-08T10:23:44.894Z,100882.59
2022-12-08T10:26:19.808Z,100881.59
2022-12-08T10:28:46.932Z,100885.09
2022-12-08T10:31:22.394Z,100881.69
2022-12-08T10:33:56.945Z,100883.38
2022-12-08T10:36:44.695Z,100881.69
2022-12-08T10:39:31.231Z,100875.63
2022-12-08T10:42:22.115Z,100877.38
2022-12-08T10:44:58.003Z,100867.94
2022-12-08T10:47:27.351Z,100867.09
2022-12-08T10:50:32.028Z,100868.00
2022-12-08T10:53:10.580Z,100868.75
2022-12-08T10:55:44.871Z,100861.03
2022-12-08T10:58:24.641Z,100860.19
2022-12-08T11:00:54.696Z,100870.50
2022-12-08T11:03:26.702Z,100868.84
2022-12-08T11:05:57.071Z,100868.06
2022-12-08T11:08:24.364Z,100866.38
2022-12-08T11:10:50.958Z,100869.94
2022-12-08T11:13:29.758Z,100869.13
2022-12-08T11:15:57.223Z,100865.66
2022-12-08T11:18:39.799Z,100872.56
2022-12-08T11:21:37.004Z,100871.72
2022-12-08T11:24:22.771Z,100859.75
2022-12-08T11:26:59.261Z,100861.50
2022-12-08T11:29:31.097Z,100859.03
2022-12-08T11:32:02.948Z,100858.44
2022-12-08T11:34:37.118Z,100846.59
2022-12-08T11:37:16.655Z,100832.78
2022-12-08T11:39:50.048Z,100831.84
2022-12-08T11:42:20.464Z,100825.00
2022-12-08T11:45:07.575Z,100822.38
2022-12-08T11:47:43.175Z,100822.28
2022-12-08T11:50:26.674Z,100817.94
2022-12-08T11:52:56.947Z,100818.84
2022-12-08T11:55:46.616Z,100814.34
2022-12-08T11:58:49.763Z,100810.88
2022-12-08T12:01:21.235Z,100805.72
2022-12-08T12:04:02.068Z,100806.66
2022-12-08T12:06:55.541Z,100804.00
2022-12-08T12:09:25.332Z,100784.94
2022-12-08T12:12:23.101Z,100793.50
2022-12-08T12:15:18.412Z,100795.19
2022-12-08T12:17:54.185Z,100790.75
2022-12-08T12:20:23.918Z,100792.44
2022-12-08T12:23:00.343Z,100796.66
2022-12-08T12:25:32.231Z,100791.41
2022-12-08T12:28:06.852Z,100788.75
2022-12-08T12:31:03.273Z,100782.56
2022-12-08T12:33:37.203Z,100785.09
2022-12-08T12:36:07.588Z,100787.00
2022-12-08T12:39:02.172Z,100785.41
2022-12-08T12:41:41.906Z,100776.25
2022-12-08T12:44:12.742Z,100773.00
2022-12-08T12:46:41.331Z,100773.84
2022-12-08T12:49:38.889Z,100772.09
2022-12-08T12:52:25.332Z,100773.09
2022-12-08T12:54:51.766Z,100775.44
2022-12-08T12:57:18.193Z,100774.53
2022-12-08T12:59:55.774Z,100773.03
2022-12-08T13:02:43.766Z,100781.69
2022-12-08T13:05:19.697Z,100774.53
2022-12-08T13:08:25.418Z,100770.94
2022-12-08T13:11:04.725Z,100764.91
2022-12-08T13:13:31.597Z,100770.00
2022-12-08T13:16:19.131Z,100775.06
2022-12-08T13:18:52.290Z,100768.19
2022-12-08T13:21:21.092Z,100766.50
2022-12-08T13:24:10.894Z,100762.28
2022-12-08T13:26:50.892Z,100764.75
2022-12-08T13:29:24.251Z,100763.00
2022-12-08T13:31:57.057Z,100762.28
2022-12-08T13:34:55.792Z,100756.25
2022-12-08T13:37:28.770Z,100757.16
2022-12-08T13:40:02.838Z,100757.16
2022-12-08T13:42:47.933Z,100747.84
2022-12-08T13:45:39.607Z,100754.78
2022-12-08T13:49:32.039Z,100754.06
2022-12-08T13:53:22.447Z,100755.13
2022-12-08T13:55:19.684Z,100754.44
2022-12-08T13:57:50.756Z,100751.69
2022-12-08T14:00:21.249Z,100751.47
2022-12-08T14:02:50.139Z,100753.97
2022-12-08T14:05:23.795Z,100756.34
2022-12-08T14:08:01.712Z,100761.44
2022-12-08T14:10:32.171Z,100763.00
2022-12-08T14:13:05.303Z,100762.16
2022-12-08T14:15:38.306Z,100757.00
2022-12-08T14:18:06.986Z,100760.41
2022-12-08T14:20:57.805Z,100752.78
2022-12-08T14:23:22.281Z,100759.66
2022-12-08T14:25:52.650Z,100757.84
2022-12-08T14:28:20.018Z,100757.94
2022-12-08T14:30:49.270Z,100759.84
2022-12-08T14:33:17.447Z,100765.91
2022-12-08T14:35:53.854Z,100768.59
2022-12-08T14:38:21.861Z,100769.59
2022-12-08T14:40:59.575Z,100764.53
2022-12-08T14:43:28.506Z,100770.53
2022-12-08T14:46:18.515Z,100767.09
2022-12-08T14:48:46.073Z,100768.88
2022-12-08T14:51:16.203Z,100764.72
2022-12-08T14:54:01.732Z,100761.34
2022-12-08T14:56:28.342Z,100765.72
2022-12-08T14:59:22.929Z,100771.78
2022-12-08T15:01:52.029Z,100765.94
2022-12-08T15:04:23.151Z,100755.69
2022-12-08T15:07:07.257Z,100761.72
2022-12-08T15:09:42.850Z,100757.47
2022-12-08T15:12:12.220Z,100758.41
2022-12-08T15:15:14.305Z,100758.41
2022-12-08T15:17:43.583Z,100762.72
2022-12-08T15:20:40.657Z,100762.72
2022-12-08T15:23:21.019Z,100754.13
2022-12-08T15:25:51.467Z,100750.72
2022-12-08T15:28:23.986Z,100744.66
2022-12-08T15:30:54.791Z,100747.22
2022-12-08T15:33:21.736Z,100752.38
2022-12-08T15:35:50.609Z,100748.94
2022-12-08T15:38:30.946Z,100752.41
2022-12-08T15:41:01.516Z,100750.56
2022-12-08T15:43:30.498Z,100754.81
2022-12-08T15:46:00.114Z,100760.78
2022-12-08T15:48:30.733Z,100752.03
2022-12-08T15:50:58.070Z,100765.75
2022-12-08T15:53:24.710Z,100760.47
2022-12-08T15:58:53.516Z,100758.72
2022-12-08T16:01:21.880Z,100756.94
2022-12-08T16:09:49.507Z,100758.19
2022-12-08T16:15:55.099Z,100767.31
2022-12-08T16:18:24.031Z,100759.88
2022-12-08T16:21:13.907Z,100759.97
2022-12-08T16:23:44.034Z,100760.91
2022-12-08T16:26:28.329Z,100757.47
2022-12-08T16:29:02.217Z,100751.53
2022-12-08T16:31:28.928Z,100744.66
2022-12-08T16:33:55.461Z,100741.38
2022-12-08T16:36:21.944Z,100743.22
2022-12-08T16:38:48.473Z,100739.13
2022-12-08T16:41:34.458Z,100737.38
2022-12-08T16:44:06.346Z,100746.94
2022-12-08T16:46:34.753Z,100741.88
2022-12-08T16:49:01.399Z,100743.56
2022-12-08T16:51:27.975Z,100751.31
2022-12-08T16:53:58.294Z,100743.50
2022-12-08T16:56:30.585Z,100747.69
2022-12-08T16:59:00.166Z,100739.84
2022-12-08T17:01:27.232Z,100742.34
2022-12-08T17:04:22.994Z,100755.19
2022-12-08T17:06:40.471Z,100748.38
2022-12-08T17:09:07.275Z,100750.09
2022-12-08T17:11:50.174Z,100753.44
2022-12-08T17:14:35.735Z,100754.28
2022-12-08T17:17:03.340Z,100750.84
2022-12-08T17:19:30.036Z,100748.38
2022-12-08T17:21:57.637Z,100745.88
2022-12-08T17:24:25.150Z,100748.47
2022-12-08T17:26:52.882Z,100741.69
2022-12-08T17:29:19.351Z,100739.28
2022-12-08T17:31:46.043Z,100744.63
2022-12-08T17:34:12.598Z,100732.78
2022-12-08T17:36:39.179Z,100735.53
2022-12-08T17:39:12.036Z,100734.03
2022-12-08T17:41:41.487Z,100738.38
2022-12-08T17:44:13.518Z,100744.56
2022-12-08T17:46:43.376Z,100748.91
2022-12-08T17:49:17.332Z,100749.94
2022-12-08T17:51:46.745Z,100743.06
2022-12-08T17:54:13.950Z,100736.94
2022-12-08T17:56:40.401Z,100739.44
2022-12-08T17:59:06.913Z,100735.00
2022-12-08T18:01:36.190Z,100732.38
2022-12-08T18:04:03.771Z,100737.50
2022-12-08T18:06:31.469Z,100737.50
2022-12-08T18:08:59.411Z,100736.69
2022-12-08T18:11:27.679Z,100742.97
2022-12-08T18:13:55.616Z,100736.25
2022-12-08T18:16:24.460Z,100742.44
2022-12-08T18:18:51.427Z,100741.66
2022-12-08T18:21:23.237Z,100742.50
2022-12-08T18:23:50.685Z,100748.41
2022-12-08T18:26:17.418Z,100738.03
2022-12-08T18:28:44.266Z,100738.78
2022-12-08T18:31:20.579Z,100734.41
2022-12-08T18:33:48.075Z,100729.09
2022-12-08T18:36:17.956Z,100733.44
2022-12-08T18:38:44.853Z,100731.97
2022-12-08T18:41:17.480Z,100728.78
2022-12-08T18:43:45.586Z,100735.00
2022-12-08T18:46:14.081Z,100742.00
2022-12-08T18:48:43.037Z,100750.72
2022-12-08T18:51:12.184Z,100749.94
2022-12-08T18:53:39.821Z,100746.69
2022-12-08T18:56:07.075Z,100749.38
2022-12-08T18:58:33.921Z,100746.75
2022-12-08T19:01:00.574Z,100756.09
2022-12-08T19:03:27.157Z,100753.28
2022-12-08T19:06:04.041Z,100753.00
2022-12-08T19:08:31.722Z,100753.78
2022-12-08T19:10:58.688Z,100750.31
2022-12-08T19:13:25.339Z,100748.50
2022-12-08T19:15:51.994Z,100750.03
2022-12-08T19:18:18.615Z,100758.56
2022-12-08T19:20:48.209Z,100755.94
2022-12-08T19:23:15.101Z,100760.19
2022-12-08T19:25:42.009Z,100761.88
2022-12-08T19:28:08.589Z,100753.28
2022-12-08T19:30:35.446Z,100761.88
2022-12-08T19:33:02.426Z,100758.38
2022-12-08T19:35:28.954Z,100758.28
2022-12-08T19:37:55.557Z,100764.28
2022-12-08T19:40:43.668Z,100764.97
2022-12-08T19:43:37.090Z,100764.91
2022-12-08T19:46:03.748Z,100764.84
2022-12-08T19:48:31.127Z,100765.75
2022-12-08T19:50:57.957Z,100771.78
2022-12-08T19:53:24.586Z,100773.38
2022-12-08T19:55:51.643Z,100765.53
2022-12-08T19:58:19.382Z,100762.13
2022-12-08T20:00:47.358Z,100766.47
2022-12-08T20:03:19.071Z,100761.25
2022-12-08T20:05:47.506Z,100774.97
2022-12-08T20:08:14.776Z,100776.72
2022-12-08T20:10:43.731Z,100774.94
2022-12-08T20:13:29.724Z,100774.84
2022-12-08T20:15:56.966Z,100781.78
2022-12-08T20:18:24.458Z,100777.47
2022-12-08T20:20:51.690Z,100775.75
2022-12-08T20:23:18.397Z,100779.09
2022-12-08T20:25:46.210Z,100778.94
2022-12-08T20:28:12.830Z,100773.63
2022-12-08T20:30:41.168Z,100771.88
2022-12-08T20:33:07.732Z,100771.03
2022-12-08T20:35:34.934Z,100779.59
2022-12-08T20:38:01.391Z,100777.91
2022-12-08T20:40:27.948Z,100776.22
2022-12-08T20:42:54.606Z,100781.38
2022-12-08T20:45:21.178Z,100785.63
2022-12-08T20:47:47.740Z,100791.63
2022-12-08T20:50:14.424Z,100789.09
2022-12-08T20:52:41.200Z,100793.38
2022-12-08T20:55:08.577Z,100790.78
2022-12-08T20:57:35.071Z,100790.69
2022-12-08T21:00:02.188Z,100786.28
2022-12-08T21:02:29.224Z,100784.56
2022-12-08T21:04:55.966Z,100787.16
2022-12-08T21:07:22.502Z,100794.19
2022-12-08T21:09:49.087Z,100796.94
2022-12-08T21:12:15.692Z,100794.34
2022-12-08T21:14:42.384Z,100795.25
2022-12-08T21:17:08.928Z,100797.69
2022-12-08T21:19:35.954Z,100798.53
2022-12-08T21:22:02.770Z,100801.13
2022-12-08T21:24:33.988Z,100794.19
2022-12-08T21:27:01.605Z,100799.34
2022-12-08T21:29:28.273Z,100793.44
2022-12-08T21:31:58.782Z,100790.03
2022-12-08T21:34:26.669Z,100793.44
2022-12-08T21:36:53.519Z,100797.66
2022-12-08T21:39:20.107Z,100795.84
2022-12-08T21:42:05.323Z,100791.56
2022-12-08T21:44:35.302Z,100795.88
2022-12-08T21:47:02.756Z,100801.13
2022-12-08T21:49:29.494Z,100797.66
2022-12-08T21:51:59.558Z,100794.19
2022-12-08T21:54:26.204Z,100795.13
2022-12-08T21:56:52.935Z,100795.94
2022-12-08T21:59:20.820Z,100802.69
2022-12-08T22:01:47.891Z,100804.47
2022-12-08T22:04:19.109Z,100805.19
2022-12-08T22:06:45.992Z,100804.47
2022-12-08T22:09:15.209Z,100809.59
2022-12-08T22:11:43.123Z,100799.94
2022-12-08T22:14:14.388Z,100804.19
2022-12-08T22:16:41.554Z,100807.69
2022-12-08T22:19:08.180Z,100812.84
2022-12-08T22:21:34.825Z,100806.00
2022-12-08T22:24:01.507Z,100813.00
2022-12-08T22:26:28.247Z,100812.13
2022-12-08T22:28:55.130Z,100819.84
2022-12-08T22:31:22.141Z,100819.91
2022-12-08T22:33:50.558Z,100817.16
2022-12-08T22:36:28.045Z,100812.09
2022-12-08T22:38:55.285Z,100806.94
2022-12-08T22:41:22.740Z,100800.06
2022-12-08T22:43:50.268Z,100800.16
2022-12-08T22:46:25.679Z,100795.88
2022-12-08T22:48:53.524Z,100789.94
2022-12-08T22:51:20.785Z,100797.69
2022-12-08T22:53:47.820Z,100787.44
2022-12-08T22:56:16.320Z,100790.88
2022-12-08T22:58:44.143Z,100788.34
2022-12-08T23:01:22.146Z,100780.69
2022-12-08T23:03:48.897Z,100785.97
2022-12-08T23:06:15.748Z,100787.81
2022-12-08T23:08:42.495Z,100781.88
2022-12-08T23:11:09.132Z,100786.28
2022-12-08T23:13:37.415Z,100790.63
2022-12-08T23:16:04.173Z,100794.09
2022-12-08T23:18:30.779Z,100797.56
2022-12-08T23:21:07.317Z,100796.75
2022-12-08T23:23:36.651Z,100799.25
2022-12-08T23:26:17.514Z,100794.09
2022-12-08T23:28:44.531Z,100794.94
2022-12-08T23:31:11.241Z,100795.78
2022-12-08T23:33:40.582Z,100790.63
2022-12-08T23:36:07.826Z,100790.75
2022-12-08T23:38:34.869Z,100778.56
2022-12-08T23:41:06.391Z,100785.44
2022-12-08T23:43:34.129Z,100793.94
2022-12-08T23:46:01.048Z,100786.28
2022-12-08T23:48:29.165Z,100788.09
2022-12-08T23:50:57.120Z,100788.94
2022-12-08T23:53:23.926Z,100785.47
2022-12-08T23:55:50.635Z,100776.03
2022-12-08T23:58:17.212Z,100779.44
